Time;durP1;ratioP1;P1;durP2;ratioP2;P2;SDS_P1;SDS_P2;PMS_P1;PMS_P2;Temp;Humidity;BMP_temperature;BMP_pressure;BME280_temperature;BME280_humidity;BME280_pressure;Samples;Min_cycle;Max_cycle;Signal;HPM_P1;HPM_P2
2023/04/16 00:01:29;;;;;;;;;;;5.40;99.90;;;;;;5035300;28;20290;-64
2023/04/16 00:04:00;;;;;;;;;;;5.40;99.90;;;;;;5061875;28;19939;-64
2023/04/16 00:06:35;;;;;;;;;;;5.40;99.90;;;;;;5062479;28;19935;-64
2023/04/16 00:09:07;;;;;;;;;;;5.40;99.90;;;;;;5057097;28;19947;-64
2023/04/16 00:11:39;;;;;;;;;;;5.40;99.90;;;;;;5054370;28;19924;-64
2023/04/16 00:14:10;;;;;;;;;;;5.30;99.90;;;;;;5032103;28;19975;-64
2023/04/16 00:16:42;;;;;;;;;;;5.40;99.90;;;;;;5060325;28;19994;-64
2023/04/16 00:19:14;;;;;;;;;;;5.40;99.90;;;;;;5068223;28;19928;-64
2023/04/16 00:21:45;;;;;;;;;;;5.30;99.90;;;;;;5067952;28;20446;-64
2023/04/16 00:24:17;;;;;;;;;;;5.30;99.90;;;;;;5051526;28;19928;-64
2023/04/16 00:26:49;;;;;;;;;;;5.30;99.90;;;;;;5066489;28;20446;-64
2023/04/16 00:29:21;;;;;;;;;;;5.30;99.90;;;;;;5058453;28;19932;-63
2023/04/16 00:31:52;;;;;;;;;;;5.30;99.90;;;;;;5056014;28;19929;-64
2023/04/16 00:34:24;;;;;;;;;;;5.30;99.90;;;;;;5050898;28;19932;-64
2023/04/16 00:36:56;;;;;;;;;;;5.30;99.90;;;;;;5062085;28;19936;-64
2023/04/16 00:39:28;;;;;;;;;;;5.30;99.90;;;;;;5065524;28;19925;-64
2023/04/16 00:42:00;;;;;;;;;;;5.30;99.90;;;;;;5047836;28;19936;-64
2023/04/16 00:44:28;;;;;;;;;;;5.30;99.90;;;;;;5047912;28;19925;-64
2023/04/16 00:46:55;;;;;;;;;;;5.30;99.90;;;;;;5051105;28;19925;-64
2023/04/16 00:49:28;;;;;;;;;;;5.40;99.90;;;;;;5053138;28;20377;-64
2023/04/16 00:52:02;;;;;;;;;;;5.40;99.90;;;;;;5048501;28;19982;-64
2023/04/16 00:54:33;;;;;;;;;;;5.30;99.90;;;;;;5062241;28;19982;-64
2023/04/16 00:57:05;;;;;;;;;;;5.30;99.90;;;;;;5060018;28;19929;-64
2023/04/16 00:59:37;;;;;;;;;;;5.40;99.90;;;;;;5059275;28;19935;-64
2023/04/16 01:02:04;;;;;;;;;;;5.30;99.90;;;;;;5059615;28;19936;-64
2023/04/16 01:04:31;;;;;;;;;;;5.30;99.90;;;;;;5063328;28;19928;-64
2023/04/16 01:06:57;;;;;;;;;;;5.40;99.90;;;;;;5060217;28;19963;-64
2023/04/16 01:09:29;;;;;;;;;;;5.30;99.90;;;;;;5049847;28;19935;-64
2023/04/16 01:11:56;;;;;;;;;;;5.30;99.90;;;;;;5061917;28;19924;-64
2023/04/16 01:14:22;;;;;;;;;;;5.30;99.90;;;;;;5056040;28;19925;-64
2023/04/16 01:16:55;;;;;;;;;;;5.30;99.90;;;;;;5041970;28;19987;-64
2023/04/16 01:19:27;;;;;;;;;;;5.40;99.90;;;;;;5061279;28;19925;-64
2023/04/16 01:21:54;;;;;;;;;;;5.40;99.90;;;;;;5060551;28;19925;-64
2023/04/16 01:24:26;;;;;;;;;;;5.30;99.90;;;;;;5063396;28;19978;-64
2023/04/16 01:26:53;;;;;;;;;;;5.30;99.90;;;;;;5064459;28;19929;-64
2023/04/16 01:29:25;;;;;;;;;;;5.30;99.90;;;;;;5032671;28;20058;-64
2023/04/16 01:31:59;;;;;;;;;;;5.40;99.90;;;;;;5044803;28;19929;-64
2023/04/16 01:34:33;;;;;;;;;;;5.40;99.90;;;;;;5052609;28;20419;-64
2023/04/16 01:37:05;;;;;;;;;;;5.40;99.90;;;;;;5037744;28;19925;-64
2023/04/16 01:39:36;;;;;;;;;;;5.40;99.90;;;;;;5055495;28;19935;-65
2023/04/16 01:42:08;;;;;;;;;;;5.40;99.90;;;;;;5042210;28;19995;-64
2023/04/16 01:44:40;;;;;;;;;;;5.40;99.90;;;;;;5031521;28;19947;-63
2023/04/16 01:47:11;;;;;;;;;;;5.40;99.90;;;;;;5059509;28;20425;-64
2023/04/16 01:49:44;;;;;;;;;;;5.40;99.90;;;;;;5053713;28;20408;-64
2023/04/16 01:52:16;;;;;;;;;;;5.30;99.90;;;;;;5052853;28;20359;-64
2023/04/16 01:54:47;;;;;;;;;;;5.30;99.90;;;;;;5059682;28;19925;-64
2023/04/16 01:57:19;;;;;;;;;;;5.30;99.90;;;;;;5064154;28;19929;-64
2023/04/16 01:59:51;;;;;;;;;;;5.30;99.90;;;;;;5065823;28;19939;-64
2023/04/16 02:02:26;;;;;;;;;;;5.30;99.90;;;;;;5059680;28;19925;-64
2023/04/16 02:04:58;;;;;;;;;;;5.30;99.90;;;;;;5058625;28;19936;-64
2023/04/16 02:07:30;;;;;;;;;;;5.30;99.90;;;;;;5063199;28;19925;-64
2023/04/16 02:10:03;;;;;;;;;;;5.30;99.90;;;;;;5044889;28;19931;-64
2023/04/16 02:12:31;;;;;;;;;;;5.30;99.90;;;;;;5050266;28;20006;-64
2023/04/16 02:15:03;;;;;;;;;;;5.30;99.90;;;;;;5056542;28;19936;-64
2023/04/16 02:17:30;;;;;;;;;;;5.30;99.90;;;;;;5066864;28;19929;-64
2023/04/16 02:20:09;;;;;;;;;;;5.30;99.90;;;;;;5054762;28;19925;-64
2023/04/16 02:22:58;;;;;;;;;;;5.30;99.90;;;;;;5067758;28;19928;-64
2023/04/16 02:25:30;;;;;;;;;;;5.40;99.90;;;;;;5065577;28;19924;-64
2023/04/16 02:27:57;;;;;;;;;;;5.40;99.90;;;;;;5063144;28;19928;-65
2023/04/16 02:30:40;;;;;;;;;;;5.30;99.90;;;;;;5058859;28;19925;-64
2023/04/16 02:33:08;;;;;;;;;;;5.40;99.90;;;;;;5060040;28;19925;-64
2023/04/16 02:35:50;;;;;;;;;;;5.30;99.90;;;;;;5057021;28;19955;-64
2023/04/16 02:38:22;;;;;;;;;;;5.30;99.90;;;;;;5048175;28;19932;-64
2023/04/16 02:40:53;;;;;;;;;;;5.30;99.90;;;;;;5044960;28;19936;-64
2023/04/16 02:43:25;;;;;;;;;;;5.30;99.90;;;;;;5050649;28;19925;-64
2023/04/16 02:45:58;;;;;;;;;;;5.40;99.90;;;;;;5065160;28;20023;-67
2023/04/16 02:48:30;;;;;;;;;;;5.40;99.90;;;;;;5073105;28;19925;-64
2023/04/16 02:51:01;;;;;;;;;;;5.40;99.90;;;;;;5066098;28;20454;-64
2023/04/16 02:53:33;;;;;;;;;;;5.40;99.90;;;;;;5046307;28;19932;-64
2023/04/16 02:56:05;;;;;;;;;;;5.40;99.90;;;;;;5055368;28;19929;-64
2023/04/16 02:58:37;;;;;;;;;;;5.40;99.90;;;;;;5056194;28;19976;-64
2023/04/16 03:01:08;;;;;;;;;;;5.40;99.90;;;;;;5054029;28;19956;-64
2023/04/16 03:03:41;;;;;;;;;;;5.40;99.90;;;;;;5051894;28;20015;-64
2023/04/16 03:06:12;;;;;;;;;;;5.40;99.90;;;;;;5052733;28;19932;-64
2023/04/16 03:08:44;;;;;;;;;;;5.40;99.90;;;;;;5054790;28;19925;-64
2023/04/16 03:11:11;;;;;;;;;;;5.40;99.90;;;;;;5057678;28;19924;-64
2023/04/16 03:13:42;;;;;;;;;;;5.40;99.90;;;;;;5044549;28;19925;-64
2023/04/16 03:16:14;;;;;;;;;;;5.40;99.90;;;;;;5060904;28;20439;-64
2023/04/16 03:18:46;;;;;;;;;;;5.40;99.90;;;;;;5060245;28;19928;-64
2023/04/16 03:21:18;;;;;;;;;;;5.30;99.90;;;;;;5060896;28;19924;-64
2023/04/16 03:23:52;;;;;;;;;;;5.40;99.90;;;;;;5059625;28;19991;-64
2023/04/16 03:26:20;;;;;;;;;;;5.40;99.90;;;;;;5055092;28;19925;-64
2023/04/16 03:28:48;;;;;;;;;;;5.40;99.90;;;;;;5052103;28;19931;-64
2023/04/16 03:31:22;;;;;;;;;;;5.40;99.90;;;;;;5061809;28;19928;-64
2023/04/16 03:33:54;;;;;;;;;;;5.40;99.90;;;;;;5055561;28;19967;-64
2023/04/16 03:36:26;;;;;;;;;;;5.30;99.90;;;;;;5041246;28;19929;-64
2023/04/16 03:38:58;;;;;;;;;;;5.30;99.90;;;;;;5060829;28;19951;-64
2023/04/16 03:41:30;;;;;;;;;;;5.40;99.90;;;;;;5063436;28;19924;-64
2023/04/16 03:44:02;;;;;;;;;;;5.40;99.90;;;;;;5059263;28;19924;-64
2023/04/16 03:46:34;;;;;;;;;;;5.40;99.90;;;;;;5067226;28;19928;-64
2023/04/16 03:49:06;;;;;;;;;;;5.40;99.90;;;;;;5069193;28;19924;-64
2023/04/16 03:51:38;;;;;;;;;;;5.40;99.90;;;;;;5037429;28;19936;-64
2023/04/16 03:54:10;;;;;;;;;;;5.40;99.90;;;;;;5054566;28;19925;-64
2023/04/16 03:56:48;;;;;;;;;;;5.40;99.90;;;;;;5056707;28;19947;-64
2023/04/16 03:59:20;;;;;;;;;;;5.40;99.90;;;;;;5055338;28;19957;-64
2023/04/16 04:01:51;;;;;;;;;;;5.40;99.90;;;;;;5059002;28;19925;-64
2023/04/16 04:04:24;;;;;;;;;;;5.40;99.90;;;;;;5045615;28;19925;-64
2023/04/16 04:06:51;;;;;;;;;;;5.40;99.90;;;;;;5066044;28;19932;-64
2023/04/16 04:09:24;;;;;;;;;;;5.40;99.90;;;;;;5033984;28;19925;-64
2023/04/16 04:11:56;;;;;;;;;;;5.40;99.90;;;;;;5048677;28;19929;-64
2023/04/16 04:14:28;;;;;;;;;;;5.40;99.90;;;;;;5051224;28;19925;-64
2023/04/16 04:16:55;;;;;;;;;;;5.40;99.90;;;;;;5058313;28;20434;-64
2023/04/16 04:19:26;;;;;;;;;;;5.40;99.90;;;;;;5062667;28;19979;-64
2023/04/16 04:21:58;;;;;;;;;;;5.40;99.90;;;;;;5040521;28;19929;-64
2023/04/16 04:24:25;;;;;;;;;;;5.40;99.90;;;;;;5060705;28;19925;-64
2023/04/16 04:26:57;;;;;;;;;;;5.50;99.90;;;;;;5042716;28;19928;-64
2023/04/16 04:29:30;;;;;;;;;;;5.50;99.90;;;;;;5055955;28;20019;-64
2023/04/16 04:32:01;;;;;;;;;;;5.50;99.90;;;;;;5066134;28;20023;-64
2023/04/16 04:34:28;;;;;;;;;;;5.50;99.90;;;;;;5068230;28;20366;-64
2023/04/16 04:37:00;;;;;;;;;;;5.50;99.90;;;;;;5042275;28;19935;-64
2023/04/16 04:39:32;;;;;;;;;;;5.50;99.90;;;;;;5052358;28;19994;-64
2023/04/16 04:42:03;;;;;;;;;;;5.50;99.90;;;;;;5038915;28;19952;-64
2023/04/16 04:44:36;;;;;;;;;;;5.50;99.90;;;;;;5056839;28;19931;-64
2023/04/16 04:47:08;;;;;;;;;;;5.50;99.90;;;;;;5059932;28;19929;-64
2023/04/16 04:49:35;;;;;;;;;;;5.50;99.90;;;;;;5057037;28;20011;-64
2023/04/16 04:52:02;;;;;;;;;;;5.50;99.90;;;;;;5056680;28;19935;-64
2023/04/16 04:54:34;;;;;;;;;;;5.50;99.90;;;;;;5036040;28;20461;-64
2023/04/16 04:57:06;;;;;;;;;;;5.50;99.90;;;;;;5052618;28;19925;-64
2023/04/16 04:59:39;;;;;;;;;;;5.50;99.90;;;;;;5040400;28;20300;-64
2023/04/16 05:02:12;;;;;;;;;;;5.50;99.90;;;;;;5052257;28;20355;-64
2023/04/16 05:04:44;;;;;;;;;;;5.50;99.90;;;;;;5066589;28;19932;-64
2023/04/16 05:07:15;;;;;;;;;;;5.50;99.90;;;;;;5040139;28;19929;-64
2023/04/16 05:09:47;;;;;;;;;;;5.50;99.90;;;;;;5060536;28;19986;-64
2023/04/16 05:12:14;;;;;;;;;;;5.50;99.90;;;;;;5059136;28;19928;-63
2023/04/16 05:14:46;;;;;;;;;;;5.50;99.90;;;;;;5058282;28;19924;-64
2023/04/16 05:17:18;;;;;;;;;;;5.50;99.90;;;;;;5054973;28;19924;-64
2023/04/16 05:19:49;;;;;;;;;;;5.50;99.90;;;;;;5066103;28;19925;-63
2023/04/16 05:22:17;;;;;;;;;;;5.50;99.90;;;;;;5070114;28;20273;-64
2023/04/16 05:24:49;;;;;;;;;;;5.60;99.90;;;;;;5068441;28;20335;-64
2023/04/16 05:27:21;;;;;;;;;;;5.60;99.90;;;;;;5054266;28;19970;-64
2023/04/16 05:29:53;;;;;;;;;;;5.60;99.90;;;;;;5055399;28;19925;-64
2023/04/16 05:32:25;;;;;;;;;;;5.60;99.90;;;;;;5061263;28;20474;-64
2023/04/16 05:34:57;;;;;;;;;;;5.60;99.90;;;;;;5062208;28;19932;-64
2023/04/16 05:37:24;;;;;;;;;;;5.70;99.90;;;;;;5061768;28;19929;-64
2023/04/16 05:39:55;;;;;;;;;;;5.70;99.90;;;;;;5057776;28;19929;-64
2023/04/16 05:42:27;;;;;;;;;;;5.70;99.90;;;;;;5053500;28;19932;-64
2023/04/16 05:45:00;;;;;;;;;;;5.70;99.90;;;;;;5052511;28;20360;-64
2023/04/16 05:47:32;;;;;;;;;;;5.70;99.90;;;;;;5047931;28;19925;-64
2023/04/16 05:50:04;;;;;;;;;;;5.70;99.90;;;;;;5052972;28;19925;-65
2023/04/16 05:52:36;;;;;;;;;;;5.70;99.90;;;;;;5058651;28;19924;-64
2023/04/16 05:55:08;;;;;;;;;;;5.70;99.90;;;;;;5062594;28;19932;-66
2023/04/16 05:57:40;;;;;;;;;;;5.80;99.90;;;;;;5046646;28;19925;-65
2023/04/16 06:00:12;;;;;;;;;;;5.80;99.90;;;;;;5060520;28;19947;-65
2023/04/16 06:02:38;;;;;;;;;;;5.80;99.90;;;;;;5056547;28;19928;-64
2023/04/16 06:05:10;;;;;;;;;;;5.90;99.90;;;;;;5060223;28;19932;-65
2023/04/16 06:07:41;;;;;;;;;;;5.90;99.90;;;;;;5045266;28;19929;-64
2023/04/16 06:10:13;;;;;;;;;;;5.90;99.90;;;;;;5056090;28;19932;-64
2023/04/16 06:12:45;;;;;;;;;;;5.90;99.90;;;;;;5056881;28;19928;-64
2023/04/16 06:15:17;;;;;;;;;;;5.90;99.90;;;;;;5055218;28;19952;-65
2023/04/16 06:17:49;;;;;;;;;;;6.00;99.90;;;;;;5060311;28;19925;-64
2023/04/16 06:20:21;;;;;;;;;;;6.00;99.90;;;;;;5052702;28;20031;-69
2023/04/16 06:22:54;;;;;;;;;;;6.00;99.90;;;;;;5054460;28;19944;-65
2023/04/16 06:25:25;;;;;;;;;;;6.10;99.90;;;;;;5054116;28;19925;-64
2023/04/16 06:27:57;;;;;;;;;;;6.10;99.90;;;;;;5053380;28;19925;-64
2023/04/16 06:30:29;;;;;;;;;;;6.20;99.90;;;;;;5053351;28;20466;-64
2023/04/16 06:32:56;;;;;;;;;;;6.20;99.90;;;;;;5059497;28;19924;-64
2023/04/16 06:35:23;;;;;;;;;;;6.20;99.90;;;;;;5054949;28;19956;-64
2023/04/16 06:37:49;;;;;;;;;;;6.30;99.90;;;;;;5061125;28;19924;-64
2023/04/16 06:40:21;;;;;;;;;;;6.40;99.90;;;;;;5059452;28;19933;-64
2023/04/16 06:42:48;;;;;;;;;;;6.40;99.90;;;;;;5059638;28;19924;-64
2023/04/16 06:45:20;;;;;;;;;;;6.50;99.90;;;;;;5062273;28;19979;-64
2023/04/16 06:47:52;;;;;;;;;;;6.50;99.90;;;;;;5060009;28;19929;-64
2023/04/16 06:50:25;;;;;;;;;;;6.60;99.90;;;;;;5064826;28;20354;-64
2023/04/16 06:52:57;;;;;;;;;;;6.60;99.90;;;;;;5061339;28;19924;-64
2023/04/16 06:55:28;;;;;;;;;;;6.60;99.90;;;;;;5059560;28;19924;-64
2023/04/16 06:58:00;;;;;;;;;;;6.70;99.90;;;;;;5064778;28;20708;-64
2023/04/16 07:00:26;;;;;;;;;;;6.70;99.90;;;;;;5057277;28;20371;-64
2023/04/16 07:02:59;;;;;;;;;;;6.80;99.90;;;;;;5056461;28;19986;-64
2023/04/16 07:05:31;;;;;;;;;;;6.80;99.90;;;;;;5063590;28;19932;-64
2023/04/16 07:07:58;;;;;;;;;;;6.80;99.90;;;;;;5061921;28;19929;-64
2023/04/16 07:10:30;;;;;;;;;;;6.80;99.90;;;;;;5054212;28;19924;-64
2023/04/16 07:13:02;;;;;;;;;;;6.80;99.90;;;;;;5058185;28;19933;-65
2023/04/16 07:15:28;;;;;;;;;;;6.80;99.90;;;;;;5068873;28;19932;-64
2023/04/16 07:18:00;;;;;;;;;;;6.80;99.90;;;;;;5060917;28;20332;-64
2023/04/16 07:20:32;;;;;;;;;;;6.80;99.90;;;;;;5054525;28;19940;-64
2023/04/16 07:23:03;;;;;;;;;;;6.80;99.90;;;;;;5056524;28;20424;-64
2023/04/16 07:25:35;;;;;;;;;;;6.90;99.90;;;;;;5057946;28;19936;-64
2023/04/16 07:28:07;;;;;;;;;;;7.00;99.90;;;;;;5060844;28;19930;-64
2023/04/16 07:30:39;;;;;;;;;;;7.00;99.90;;;;;;5060556;28;20396;-64
2023/04/16 07:33:10;;;;;;;;;;;7.10;99.90;;;;;;5059751;28;19929;-64
2023/04/16 07:35:44;;;;;;;;;;;7.10;99.90;;;;;;5055213;28;19935;-64
2023/04/16 07:38:10;;;;;;;;;;;7.10;99.90;;;;;;5055011;28;19932;-64
2023/04/16 07:40:42;;;;;;;;;;;7.10;99.90;;;;;;5050682;28;20624;-64
2023/04/16 07:43:15;;;;;;;;;;;7.10;99.90;;;;;;5053579;28;20301;-65
2023/04/16 07:45:47;;;;;;;;;;;7.10;99.90;;;;;;5054009;28;19988;-65
2023/04/16 07:48:18;;;;;;;;;;;7.20;99.90;;;;;;5058764;28;20380;-65
2023/04/16 07:50:50;;;;;;;;;;;7.20;99.90;;;;;;5030152;28;19925;-64
2023/04/16 07:53:22;;;;;;;;;;;7.30;99.90;;;;;;5058196;28;19944;-65
2023/04/16 07:55:49;;;;;;;;;;;7.30;99.90;;;;;;5058425;28;19925;-65
2023/04/16 07:58:21;;;;;;;;;;;7.30;99.90;;;;;;5054507;28;19928;-64
2023/04/16 08:00:52;;;;;;;;;;;7.30;99.90;;;;;;5046144;28;20314;-64
2023/04/16 08:03:24;;;;;;;;;;;7.30;99.90;;;;;;5051141;28;20455;-64
2023/04/16 08:05:56;;;;;;;;;;;7.40;99.90;;;;;;5051861;28;20359;-64
2023/04/16 08:08:23;;;;;;;;;;;7.40;99.90;;;;;;5055011;28;19940;-64
2023/04/16 08:10:55;;;;;;;;;;;7.40;99.90;;;;;;5053938;28;20420;-64
2023/04/16 08:13:27;;;;;;;;;;;7.50;99.90;;;;;;5056677;28;19929;-64
2023/04/16 08:15:59;;;;;;;;;;;7.50;99.90;;;;;;5054964;28;20401;-64
2023/04/16 08:18:30;;;;;;;;;;;7.60;99.90;;;;;;5053707;28;19932;-64
2023/04/16 08:21:02;;;;;;;;;;;7.60;99.90;;;;;;5058578;28;19924;-64
2023/04/16 08:23:34;;;;;;;;;;;7.70;99.90;;;;;;5054241;28;20274;-64
2023/04/16 08:26:06;;;;;;;;;;;7.70;99.90;;;;;;5049808;28;20310;-65
2023/04/16 08:28:37;;;;;;;;;;;7.70;99.90;;;;;;5050260;28;19979;-65
2023/04/16 08:31:09;;;;;;;;;;;7.70;99.90;;;;;;5056503;28;19943;-64
2023/04/16 08:33:42;;;;;;;;;;;7.70;99.90;;;;;;5046062;28;20392;-64
2023/04/16 08:36:13;;;;;;;;;;;7.70;99.90;;;;;;5059834;28;19928;-64
2023/04/16 08:38:40;;;;;;;;;;;7.70;99.90;;;;;;5059037;28;19929;-64
2023/04/16 08:41:12;;;;;;;;;;;7.70;99.90;;;;;;5058980;28;19964;-64
2023/04/16 08:43:44;;;;;;;;;;;7.80;99.90;;;;;;5059796;28;19925;-64
2023/04/16 08:46:16;;;;;;;;;;;7.80;99.90;;;;;;5057297;28;19933;-64
2023/04/16 08:48:48;;;;;;;;;;;7.90;99.90;;;;;;5048221;28;20003;-65
2023/04/16 08:51:21;;;;;;;;;;;7.80;99.90;;;;;;5050791;28;20411;-64
2023/04/16 08:53:52;;;;;;;;;;;7.80;99.90;;;;;;5055218;28;19924;-64
2023/04/16 08:56:24;;;;;;;;;;;7.90;99.90;;;;;;5058465;28;19925;-64
2023/04/16 08:58:57;;;;;;;;;;;7.80;99.90;;;;;;5053978;28;20316;-64
2023/04/16 09:01:30;;;;;;;;;;;7.80;99.90;;;;;;5058138;28;19924;-64
2023/04/16 09:04:02;;;;;;;;;;;7.80;99.90;;;;;;5062561;28;19935;-64
2023/04/16 09:06:33;;;;;;;;;;;7.90;99.90;;;;;;5061220;28;19929;-64
2023/04/16 09:09:03;;;;;;;;;;;7.80;99.90;;;;;;5060010;28;19929;-64
2023/04/16 09:11:35;;;;;;;;;;;7.90;99.90;;;;;;5059128;28;19948;-64
2023/04/16 09:14:08;;;;;;;;;;;7.90;99.90;;;;;;5058230;28;20408;-64
2023/04/16 09:16:40;;;;;;;;;;;7.90;99.90;;;;;;5057848;28;19958;-64
2023/04/16 09:19:07;;;;;;;;;;;7.90;99.90;;;;;;5065203;28;19924;-64
2023/04/16 09:21:40;;;;;;;;;;;7.90;99.90;;;;;;5062462;28;19929;-64
2023/04/16 09:24:12;;;;;;;;;;;7.90;99.90;;;;;;5057581;28;19928;-64
2023/04/16 09:26:40;;;;;;;;;;;7.90;99.90;;;;;;5062383;28;19928;-64
2023/04/16 09:29:31;;;;;;;;;;;7.90;99.90;;;;;;5050678;28;19929;-64
2023/04/16 09:32:04;;;;;;;;;;;7.90;99.90;;;;;;5056921;28;19935;-64
2023/04/16 09:34:34;;;;;;;;;;;7.90;99.90;;;;;;5053948;28;19925;-64
2023/04/16 09:37:15;;;;;;;;;;;8.00;99.90;;;;;;5054495;28;20356;-64
2023/04/16 09:39:57;;;;;;;;;;;8.10;99.90;;;;;;5049953;28;19929;-64
2023/04/16 09:42:30;;;;;;;;;;;8.10;99.90;;;;;;5055881;28;20404;-64
2023/04/16 09:45:02;;;;;;;;;;;8.10;99.90;;;;;;5057897;28;19932;-65
2023/04/16 09:47:39;;;;;;;;;;;8.20;99.90;;;;;;5059248;28;19924;-64
2023/04/16 09:50:15;;;;;;;;;;;8.20;99.90;;;;;;5059828;28;19978;-65
2023/04/16 09:52:48;;;;;;;;;;;8.30;99.90;;;;;;5062626;28;20438;-64
2023/04/16 09:55:15;;;;;;;;;;;8.30;99.90;;;;;;5054419;28;20773;-64
2023/04/16 09:57:42;;;;;;;;;;;8.30;99.90;;;;;;5054251;28;19978;-64
2023/04/16 10:00:17;;;;;;;;;;;8.30;99.90;;;;;;5052282;28;19956;-64
2023/04/16 10:02:49;;;;;;;;;;;8.30;99.90;;;;;;5058741;28;20002;-64
2023/04/16 10:05:21;;;;;;;;;;;8.40;99.90;;;;;;5050773;28;20541;-65
2023/04/16 10:07:58;;;;;;;;;;;8.30;99.90;;;;;;5064963;28;19933;-64
2023/04/16 10:10:31;;;;;;;;;;;8.40;99.90;;;;;;5059385;28;19925;-64
2023/04/16 10:13:02;;;;;;;;;;;8.40;99.90;;;;;;5063283;28;19986;-64
2023/04/16 10:15:29;;;;;;;;;;;8.50;99.90;;;;;;5059011;28;20405;-64
2023/04/16 10:18:01;;;;;;;;;;;8.40;99.90;;;;;;5066357;28;20737;-63
2023/04/16 10:20:28;;;;;;;;;;;8.40;99.90;;;;;;5057332;28;20400;-63
2023/04/16 10:23:00;;;;;;;;;;;8.40;99.90;;;;;;5057366;28;20069;-63
2023/04/16 10:25:32;;;;;;;;;;;8.40;99.90;;;;;;5033600;28;19929;-62
2023/04/16 10:28:05;;;;;;;;;;;8.40;99.90;;;;;;5060121;28;19932;-63
2023/04/16 10:30:37;;;;;;;;;;;8.40;99.90;;;;;;5051697;28;19933;-64
2023/04/16 10:33:09;;;;;;;;;;;8.30;99.90;;;;;;5060496;28;19924;-63
2023/04/16 10:35:41;;;;;;;;;;;8.30;99.90;;;;;;5052313;28;19936;-64
2023/04/16 10:38:22;;;;;;;;;;;8.40;99.90;;;;;;5061976;28;19925;-64
2023/04/16 10:40:49;;;;;;;;;;;8.40;99.90;;;;;;5061072;28;19932;-63
2023/04/16 10:43:23;;;;;;;;;;;8.30;99.90;;;;;;5035773;28;19924;-63
2023/04/16 10:45:55;;;;;;;;;;;8.30;99.90;;;;;;5048696;28;19963;-63
2023/04/16 10:48:28;;;;;;;;;;;8.30;99.90;;;;;;5051114;28;19982;-63
2023/04/16 10:51:00;;;;;;;;;;;8.30;99.90;;;;;;5057816;28;20032;-64
2023/04/16 10:53:27;;;;;;;;;;;8.30;99.90;;;;;;5062302;28;19951;-63
2023/04/16 10:56:01;;;;;;;;;;;8.30;99.90;;;;;;5060027;28;20388;-64
2023/04/16 10:58:29;;;;;;;;;;;8.20;99.90;;;;;;5060210;28;20427;-63
2023/04/16 11:01:05;;;;;;;;;;;8.20;99.90;;;;;;5060819;28;19936;-64
2023/04/16 11:03:40;;;;;;;;;;;8.10;99.90;;;;;;5053323;28;19929;-65
2023/04/16 11:06:13;;;;;;;;;;;8.10;99.90;;;;;;5055700;28;19925;-64
2023/04/16 11:08:45;;;;;;;;;;;8.10;99.90;;;;;;5053097;28;20412;-63
2023/04/16 11:11:17;;;;;;;;;;;8.10;99.90;;;;;;5054726;28;19932;-64
2023/04/16 11:13:53;;;;;;;;;;;8.20;99.90;;;;;;5057202;28;19925;-64
2023/04/16 11:16:25;;;;;;;;;;;8.30;99.90;;;;;;5057816;28;19924;-64
2023/04/16 11:18:52;;;;;;;;;;;8.30;99.90;;;;;;5060783;28;19932;-64
2023/04/16 11:21:25;;;;;;;;;;;8.30;99.90;;;;;;5060555;28;19925;-63
2023/04/16 11:23:52;;;;;;;;;;;8.40;99.90;;;;;;5063928;28;20392;-63
2023/04/16 11:26:28;;;;;;;;;;;8.40;99.90;;;;;;5054946;28;20672;-64
2023/04/16 11:28:59;;;;;;;;;;;8.40;99.90;;;;;;5065036;28;19935;-63
2023/04/16 11:31:26;;;;;;;;;;;8.40;99.90;;;;;;5065722;28;19931;-63
2023/04/16 11:33:54;;;;;;;;;;;8.40;99.90;;;;;;5061664;28;20316;-64
2023/04/16 11:36:21;;;;;;;;;;;8.40;99.90;;;;;;5056053;28;19928;-64
2023/04/16 11:38:59;;;;;;;;;;;8.30;99.90;;;;;;5063851;28;19925;-64
2023/04/16 11:41:31;;;;;;;;;;;8.40;99.90;;;;;;5052775;28;19933;-64
2023/04/16 11:44:15;;;;;;;;;;;8.30;99.90;;;;;;5052876;28;19951;-63
2023/04/16 11:46:47;;;;;;;;;;;8.30;99.90;;;;;;5058295;28;19929;-64
2023/04/16 11:49:16;;;;;;;;;;;8.30;99.90;;;;;;5054023;28;19925;-64
2023/04/16 11:51:43;;;;;;;;;;;8.40;99.90;;;;;;5052601;28;19933;-63
2023/04/16 11:54:19;;;;;;;;;;;8.40;99.90;;;;;;5055398;28;19929;-64
2023/04/16 11:56:52;;;;;;;;;;;8.50;99.90;;;;;;5047005;28;19928;-63
2023/04/16 11:59:23;;;;;;;;;;;8.50;99.90;;;;;;5051412;28;19924;-64
2023/04/16 12:01:51;;;;;;;;;;;8.50;99.90;;;;;;5054436;28;19936;-63
2023/04/16 12:04:24;;;;;;;;;;;8.50;99.90;;;;;;5051792;28;19924;-64
2023/04/16 12:07:05;;;;;;;;;;;8.50;99.90;;;;;;5052563;28;19931;-64
2023/04/16 12:09:33;;;;;;;;;;;8.60;99.90;;;;;;5053857;28;20289;-65
2023/04/16 12:12:01;;;;;;;;;;;8.60;99.90;;;;;;5050807;28;19932;-63
2023/04/16 12:14:32;;;;;;;;;;;8.70;99.90;;;;;;5054762;28;20462;-64
2023/04/16 12:17:18;;;;;;;;;;;8.60;99.90;;;;;;5054756;28;19940;-64
2023/04/16 12:19:50;;;;;;;;;;;8.70;99.90;;;;;;5049580;28;19939;-63
2023/04/16 12:22:25;;;;;;;;;;;8.70;99.90;;;;;;5051063;28;19925;-64
2023/04/16 12:24:55;;;;;;;;;;;8.70;99.90;;;;;;5056460;28;20400;-64
2023/04/16 12:27:27;;;;;;;;;;;8.70;99.90;;;;;;5050904;28;19924;-64
2023/04/16 12:30:06;;;;;;;;;;;8.70;99.90;;;;;;5056858;28;20308;-63
2023/04/16 12:32:38;;;;;;;;;;;8.70;99.90;;;;;;5056687;28;19925;-63
2023/04/16 12:35:10;;;;;;;;;;;8.70;99.90;;;;;;5060056;28;20378;-64
2023/04/16 12:37:41;;;;;;;;;;;8.60;99.90;;;;;;5052896;28;19933;-63
2023/04/16 12:40:13;;;;;;;;;;;8.70;99.90;;;;;;5047086;28;19929;-64
2023/04/16 12:42:45;;;;;;;;;;;8.70;99.90;;;;;;5046245;28;19982;-64
2023/04/16 12:45:16;;;;;;;;;;;8.70;99.90;;;;;;5049954;28;19925;-63
2023/04/16 12:47:49;;;;;;;;;;;8.60;99.90;;;;;;5046985;28;19936;-65
2023/04/16 12:50:21;;;;;;;;;;;8.60;99.90;;;;;;5051502;28;20015;-64
2023/04/16 12:52:54;;;;;;;;;;;8.70;99.90;;;;;;5054184;28;19935;-64
2023/04/16 12:55:26;;;;;;;;;;;8.70;99.90;;;;;;5053832;28;20320;-63
2023/04/16 12:57:57;;;;;;;;;;;8.70;99.90;;;;;;5053820;28;19937;-64
2023/04/16 13:00:29;;;;;;;;;;;8.70;99.90;;;;;;5052513;28;19933;-63
2023/04/16 13:03:01;;;;;;;;;;;8.70;99.90;;;;;;5050628;28;20015;-63
2023/04/16 13:05:32;;;;;;;;;;;8.70;99.90;;;;;;5050440;28;19932;-64
2023/04/16 13:08:04;;;;;;;;;;;8.70;99.90;;;;;;5038544;28;19928;-63
2023/04/16 13:10:36;;;;;;;;;;;8.80;99.90;;;;;;5053469;28;19932;-65
2023/04/16 13:13:08;;;;;;;;;;;8.70;99.90;;;;;;5057631;28;19928;-63
2023/04/16 13:15:40;;;;;;;;;;;8.80;99.90;;;;;;5058503;28;19936;-64
2023/04/16 13:18:07;;;;;;;;;;;8.80;99.90;;;;;;5060570;28;19935;-64
2023/04/16 13:20:38;;;;;;;;;;;8.80;99.90;;;;;;5061280;28;20017;-64
2023/04/16 13:23:10;;;;;;;;;;;8.80;99.90;;;;;;5053345;28;19940;-65
2023/04/16 13:25:37;;;;;;;;;;;8.80;99.90;;;;;;5050746;28;19933;-64
2023/04/16 13:28:09;;;;;;;;;;;8.90;99.90;;;;;;5050688;28;19929;-65
2023/04/16 13:30:41;;;;;;;;;;;8.90;99.90;;;;;;5053929;28;20397;-64
2023/04/16 13:33:12;;;;;;;;;;;8.90;99.90;;;;;;5054990;28;19947;-65
2023/04/16 13:35:44;;;;;;;;;;;8.90;99.90;;;;;;5051632;28;19928;-64
2023/04/16 13:38:11;;;;;;;;;;;8.90;99.90;;;;;;5060881;28;19924;-65
2023/04/16 13:40:43;;;;;;;;;;;8.90;99.90;;;;;;5031607;28;20359;-64
2023/04/16 13:43:17;;;;;;;;;;;8.90;99.90;;;;;;5054094;28;20507;-64
2023/04/16 13:45:44;;;;;;;;;;;8.80;99.90;;;;;;5064684;28;19974;-66
2023/04/16 13:48:16;;;;;;;;;;;8.90;99.90;;;;;;5053806;28;20355;-64
2023/04/16 13:50:43;;;;;;;;;;;8.80;99.90;;;;;;5058135;28;20428;-64
2023/04/16 13:53:10;;;;;;;;;;;8.80;99.90;;;;;;5056093;28;19933;-64
2023/04/16 13:55:42;;;;;;;;;;;8.80;99.90;;;;;;5065539;28;19925;-65
2023/04/16 13:58:14;;;;;;;;;;;8.80;99.90;;;;;;5061859;28;19925;-63
2023/04/16 14:00:41;;;;;;;;;;;8.80;99.90;;;;;;5064120;28;19925;-63
2023/04/16 14:03:13;;;;;;;;;;;8.80;99.90;;;;;;5059194;28;19924;-64
2023/04/16 14:05:45;;;;;;;;;;;8.80;99.90;;;;;;5064693;28;19970;-64
2023/04/16 14:08:20;;;;;;;;;;;8.80;99.90;;;;;;5063367;28;19932;-63
2023/04/16 14:10:47;;;;;;;;;;;8.80;99.90;;;;;;5064748;28;19936;-64
2023/04/16 14:13:19;;;;;;;;;;;8.80;99.90;;;;;;5051731;28;19979;-65
2023/04/16 14:15:54;;;;;;;;;;;8.70;99.90;;;;;;5055340;28;19925;-65
2023/04/16 14:18:26;;;;;;;;;;;8.70;99.90;;;;;;5058817;28;19956;-65
2023/04/16 14:20:57;;;;;;;;;;;8.70;99.90;;;;;;5044390;28;19940;-65
2023/04/16 14:23:30;;;;;;;;;;;8.70;99.90;;;;;;5045425;28;19928;-65
2023/04/16 14:26:02;;;;;;;;;;;8.70;99.90;;;;;;5062470;28;19932;-64
2023/04/16 14:28:34;;;;;;;;;;;8.70;99.90;;;;;;5064021;28;19932;-64
2023/04/16 14:31:01;;;;;;;;;;;8.60;99.90;;;;;;5063221;28;19925;-64
2023/04/16 14:33:32;;;;;;;;;;;8.60;99.90;;;;;;5058398;28;19929;-69
2023/04/16 14:36:04;;;;;;;;;;;8.60;99.90;;;;;;5063021;28;20351;-63
2023/04/16 14:38:31;;;;;;;;;;;8.50;99.90;;;;;;5055820;28;19925;-63
2023/04/16 14:40:59;;;;;;;;;;;8.50;99.90;;;;;;5059206;28;19924;-64
2023/04/16 14:43:31;;;;;;;;;;;8.50;99.90;;;;;;5058033;28;19925;-63
2023/04/16 14:46:05;;;;;;;;;;;8.40;99.90;;;;;;5062958;28;19933;-63
2023/04/16 14:48:36;;;;;;;;;;;8.40;99.90;;;;;;5061686;28;20384;-63
2023/04/16 14:51:08;;;;;;;;;;;8.40;99.90;;;;;;5062234;28;19989;-63
2023/04/16 14:53:38;;;;;;;;;;;8.40;99.90;;;;;;5062971;28;19924;-64
2023/04/16 14:56:10;;;;;;;;;;;8.40;99.90;;;;;;5059453;28;19986;-64